createdAt,value
2023-05-23T00:01:46.784Z,18.58
2023-05-23T00:04:17.295Z,18.54
2023-05-23T00:06:47.170Z,18.44
2023-05-23T00:09:14.830Z,18.38
2023-05-23T00:11:45.443Z,18.37
2023-05-23T00:14:13.682Z,18.38
2023-05-23T00:16:45.300Z,18.45
2023-05-23T00:19:15.130Z,18.43
2023-05-23T00:21:48.253Z,18.43
2023-05-23T00:24:18.616Z,18.45
2023-05-23T00:26:45.972Z,18.39
2023-05-23T00:29:16.490Z,18.42
2023-05-23T00:31:46.697Z,18.43
2023-05-23T00:34:15.876Z,18.44
2023-05-23T00:36:43.762Z,18.48
2023-05-23T00:39:19.244Z,18.53
2023-05-23T00:41:51.973Z,18.48
2023-05-23T00:44:21.512Z,18.43
2023-05-23T00:46:53.296Z,18.44
2023-05-23T00:49:20.765Z,18.47
2023-05-23T00:51:49.753Z,18.51
2023-05-23T00:54:19.746Z,18.44
2023-05-23T00:56:48.339Z,18.40
2023-05-23T00:59:16.956Z,18.26
2023-05-23T01:01:47.308Z,18.27
2023-05-23T01:04:16.877Z,18.16
2023-05-23T01:06:47.220Z,18.23
2023-05-23T01:09:17.016Z,18.17
2023-05-23T01:11:57.408Z,18.15
2023-05-23T01:14:32.883Z,18.14
2023-05-23T01:17:07.752Z,18.14
2023-05-23T01:19:49.544Z,18.14
2023-05-23T01:22:42.569Z,18.21
2023-05-23T01:25:30.826Z,18.26
2023-05-23T01:28:02.113Z,18.31
2023-05-23T01:30:32.507Z,18.35
2023-05-23T01:33:00.805Z,18.40
2023-05-23T01:35:28.507Z,18.36
2023-05-23T01:37:56.116Z,18.17
2023-05-23T01:40:24.764Z,18.09
2023-05-23T01:42:52.852Z,18.12
2023-05-23T01:45:20.504Z,17.96
2023-05-23T01:47:51.328Z,18.03
2023-05-23T01:50:18.342Z,17.99
2023-05-23T01:52:47.077Z,18.06
2023-05-23T01:55:18.688Z,18.09
2023-05-23T01:57:49.804Z,18.07
2023-05-23T02:00:17.796Z,18.12
2023-05-23T02:02:47.366Z,18.12
2023-05-23T02:05:16.814Z,18.15
2023-05-23T02:07:43.650Z,18.04
2023-05-23T02:10:10.535Z,18.08
2023-05-23T02:12:38.229Z,18.02
2023-05-23T02:15:05.825Z,17.93
2023-05-23T02:17:32.888Z,17.91
2023-05-23T02:19:59.902Z,18.00
2023-05-23T02:22:26.808Z,18.10
2023-05-23T02:24:53.622Z,18.09
2023-05-23T02:27:20.529Z,18.13
2023-05-23T02:29:47.458Z,18.19
2023-05-23T02:32:14.407Z,18.23
2023-05-23T02:34:42.624Z,18.26
2023-05-23T02:37:09.469Z,18.27
2023-05-23T02:39:38.392Z,18.16
2023-05-23T02:42:05.379Z,18.03
2023-05-23T02:44:33.118Z,18.13
2023-05-23T02:47:00.065Z,18.13
2023-05-23T02:49:26.972Z,18.05
2023-05-23T02:51:55.484Z,17.95
2023-05-23T02:54:22.778Z,17.94
2023-05-23T02:56:52.373Z,17.99
2023-05-23T02:59:19.324Z,17.88
2023-05-23T03:01:46.178Z,17.64
2023-05-23T03:04:13.848Z,17.60
2023-05-23T03:06:42.267Z,17.59
2023-05-23T03:09:10.700Z,17.58
2023-05-23T03:11:37.776Z,17.68
2023-05-23T03:14:04.493Z,17.62
2023-05-23T03:16:32.089Z,17.60
2023-05-23T03:18:59.548Z,17.57
2023-05-23T03:21:26.450Z,17.49
2023-05-23T03:23:53.429Z,17.41
2023-05-23T03:26:21.967Z,17.45
2023-05-23T03:28:49.857Z,17.32
2023-05-23T03:31:19.336Z,17.21
2023-05-23T03:33:46.249Z,17.22
2023-05-23T03:36:13.064Z,17.08
2023-05-23T03:38:39.982Z,17.05
2023-05-23T03:41:06.975Z,17.08
2023-05-23T03:43:33.861Z,17.02
2023-05-23T03:46:01.218Z,16.93
2023-05-23T03:48:30.201Z,16.99
2023-05-23T03:50:56.997Z,16.91
2023-05-23T03:53:23.876Z,16.87
2023-05-23T03:55:50.860Z,16.85
2023-05-23T03:58:17.638Z,16.56
2023-05-23T04:00:47.599Z,16.66
2023-05-23T04:03:17.779Z,16.54
2023-05-23T04:05:45.323Z,16.56
2023-05-23T04:08:13.087Z,16.54
2023-05-23T04:10:39.986Z,16.57
2023-05-23T04:13:07.075Z,16.65
2023-05-23T04:15:34.330Z,16.63
2023-05-23T04:18:09.296Z,16.59
2023-05-23T04:20:36.848Z,16.48
2023-05-23T04:23:04.742Z,16.32
2023-05-23T04:25:34.956Z,16.36
2023-05-23T04:28:06.717Z,16.28
2023-05-23T04:30:33.678Z,16.25
2023-05-23T04:33:00.779Z,16.27
2023-05-23T04:35:29.367Z,16.16
2023-05-23T04:37:56.840Z,16.09
2023-05-23T04:40:25.831Z,16.17
2023-05-23T04:43:14.422Z,16.12
2023-05-23T04:45:57.839Z,16.13
2023-05-23T04:48:38.743Z,16.12
2023-05-23T04:51:08.769Z,16.08
2023-05-23T04:53:41.285Z,15.85
2023-05-23T04:56:10.207Z,16.03
2023-05-23T04:58:40.734Z,16.07
2023-05-23T05:01:09.923Z,16.06
2023-05-23T05:03:36.798Z,16.09
2023-05-23T05:06:04.332Z,16.13
2023-05-23T05:08:31.543Z,16.11
2023-05-23T05:10:58.712Z,16.10
2023-05-23T05:13:25.755Z,16.10
2023-05-23T05:15:55.139Z,16.12
2023-05-23T05:18:23.435Z,16.10
2023-05-23T05:20:50.879Z,16.11
2023-05-23T05:23:17.829Z,16.23
2023-05-23T05:25:44.862Z,16.25
2023-05-23T05:28:12.371Z,16.35
2023-05-23T05:30:46.548Z,16.43
2023-05-23T05:33:14.371Z,16.50
2023-05-23T05:35:41.666Z,16.58
2023-05-23T05:38:08.596Z,16.68
2023-05-23T05:40:35.862Z,16.81
2023-05-23T05:43:02.888Z,16.81
2023-05-23T05:45:29.759Z,16.99
2023-05-23T05:47:56.946Z,17.06
2023-05-23T05:50:25.090Z,17.06
2023-05-23T05:52:51.878Z,17.07
2023-05-23T05:55:18.912Z,17.11
2023-05-23T05:57:50.752Z,17.27
2023-05-23T06:00:19.395Z,17.32
2023-05-23T06:02:51.994Z,17.35
2023-05-23T06:05:37.500Z,17.41
2023-05-23T06:08:04.904Z,17.48
2023-05-23T06:10:31.811Z,17.60
2023-05-23T06:12:59.908Z,17.65
2023-05-23T06:15:27.141Z,17.81
2023-05-23T06:17:54.145Z,17.87
2023-05-23T06:20:21.733Z,17.90
2023-05-23T06:22:48.713Z,17.97
2023-05-23T06:25:15.618Z,18.01
2023-05-23T06:27:42.454Z,17.94
2023-05-23T06:30:09.902Z,18.07
2023-05-23T06:32:36.994Z,18.09
2023-05-23T06:35:04.414Z,17.97
2023-05-23T06:37:34.484Z,17.90
2023-05-23T06:40:01.469Z,17.99
2023-05-23T06:42:28.311Z,18.07
2023-05-23T06:45:04.182Z,18.17
2023-05-23T06:47:32.383Z,18.25
2023-05-23T06:49:59.313Z,18.30
2023-05-23T06:52:26.110Z,18.31
2023-05-23T06:54:52.919Z,18.32
2023-05-23T06:57:20.345Z,18.21
2023-05-23T06:59:47.536Z,18.19
2023-05-23T07:02:15.523Z,18.20
2023-05-23T07:04:42.355Z,18.15
2023-05-23T07:07:16.119Z,18.04
2023-05-23T07:09:44.253Z,18.07
2023-05-23T07:12:16.761Z,17.96
2023-05-23T07:14:46.318Z,17.92
2023-05-23T07:17:14.216Z,17.87
2023-05-23T07:19:41.342Z,17.86
2023-05-23T07:22:08.150Z,17.85
2023-05-23T07:24:38.104Z,17.90
2023-05-23T07:27:06.701Z,17.86
2023-05-23T07:29:35.518Z,17.97
2023-05-23T07:32:02.356Z,18.00
2023-05-23T07:34:30.640Z,18.12
2023-05-23T07:37:01.377Z,18.16
2023-05-23T07:39:34.433Z,18.21
2023-05-23T07:42:01.841Z,18.27
2023-05-23T07:44:28.980Z,18.32
2023-05-23T07:46:55.995Z,18.35
2023-05-23T07:49:23.746Z,18.41
2023-05-23T07:51:51.133Z,18.48
2023-05-23T07:54:18.025Z,18.49
2023-05-23T07:56:45.607Z,18.58
2023-05-23T07:59:13.431Z,18.65
2023-05-23T08:01:42.363Z,18.75
2023-05-23T08:04:13.356Z,18.83
2023-05-23T08:07:04.145Z,18.93
2023-05-23T08:09:46.491Z,19.02
2023-05-23T08:12:16.478Z,19.17
2023-05-23T08:14:51.617Z,19.20
2023-05-23T08:17:24.648Z,19.22
2023-05-23T08:19:52.348Z,19.18
2023-05-23T08:22:19.278Z,18.98
2023-05-23T08:24:46.185Z,18.89
2023-05-23T08:27:13.249Z,18.88
2023-05-23T08:29:41.334Z,19.02
2023-05-23T08:32:08.731Z,18.88
2023-05-23T08:34:35.617Z,19.03
2023-05-23T08:37:03.436Z,19.03
2023-05-23T08:39:30.448Z,19.10
2023-05-23T08:42:19.796Z,19.14
2023-05-23T08:44:46.645Z,19.34
2023-05-23T08:47:17.566Z,19.46
2023-05-23T08:49:55.184Z,19.65
2023-05-23T08:52:25.690Z,19.74
2023-05-23T08:54:55.449Z,19.85
2023-05-23T08:57:23.285Z,20.10
2023-05-23T08:59:56.471Z,20.30
2023-05-23T09:02:25.019Z,20.47
2023-05-23T09:04:56.348Z,20.70
2023-05-23T09:07:25.672Z,20.84
2023-05-23T09:09:53.566Z,21.04
2023-05-23T09:12:22.510Z,21.22
2023-05-23T09:14:51.158Z,21.37
2023-05-23T09:17:20.449Z,21.58
2023-05-23T09:19:47.914Z,21.75
2023-05-23T09:22:28.668Z,21.93
2023-05-23T09:25:03.279Z,22.00
2023-05-23T09:27:31.362Z,22.03
2023-05-23T09:29:58.522Z,22.05
2023-05-23T09:32:27.939Z,22.17
2023-05-23T09:34:58.847Z,22.41
2023-05-23T09:37:40.892Z,22.61
2023-05-23T09:40:12.386Z,22.75
2023-05-23T09:42:45.052Z,22.82
2023-05-23T09:45:13.092Z,22.95
2023-05-23T09:47:40.006Z,22.87
2023-05-23T09:50:08.852Z,22.94
2023-05-23T09:52:38.893Z,23.02
2023-05-23T09:55:06.787Z,23.09
2023-05-23T09:57:40.900Z,23.22
2023-05-23T10:00:13.828Z,23.13
2023-05-23T10:03:06.217Z,23.14
2023-05-23T10:05:47.938Z,23.25
2023-05-23T10:08:39.042Z,23.25
2023-05-23T10:11:34.792Z,23.13
2023-05-23T10:14:05.107Z,23.12
2023-05-23T10:16:44.164Z,23.21
2023-05-23T10:19:26.186Z,23.34
2023-05-23T10:22:00.939Z,23.38
2023-05-23T10:24:28.463Z,23.46
2023-05-23T10:26:55.843Z,23.45
2023-05-23T10:29:23.261Z,23.46
2023-05-23T10:31:52.079Z,23.60
2023-05-23T10:34:48.174Z,23.71
2023-05-23T10:37:27.605Z,23.64
2023-05-23T10:39:59.485Z,23.61
2023-05-23T10:42:44.716Z,23.50
2023-05-23T10:45:29.578Z,23.43
2023-05-23T10:47:56.576Z,23.36
2023-05-23T10:50:41.756Z,23.44
2023-05-23T10:53:09.503Z,23.38
2023-05-23T10:55:37.593Z,23.37
2023-05-23T10:58:12.829Z,23.33
2023-05-23T11:00:40.005Z,23.33
2023-05-23T11:03:09.256Z,23.43
2023-05-23T11:05:38.782Z,23.43
2023-05-23T11:08:16.273Z,23.48
2023-05-23T11:11:03.308Z,23.48
2023-05-23T11:13:56.754Z,23.49
2023-05-23T11:16:49.360Z,23.37
2023-05-23T11:19:19.218Z,23.30
2023-05-23T11:21:49.284Z,23.15
2023-05-23T11:24:17.708Z,23.20
2023-05-23T11:26:55.218Z,23.27
2023-05-23T11:29:22.166Z,23.20
2023-05-23T11:31:51.693Z,23.12
2023-05-23T11:34:19.306Z,23.00
2023-05-23T11:36:46.887Z,23.04
2023-05-23T11:39:15.572Z,23.29
2023-05-23T11:41:43.556Z,23.37
2023-05-23T11:44:13.938Z,23.32
2023-05-23T11:46:41.382Z,23.28
2023-05-23T11:49:12.209Z,23.15
2023-05-23T11:51:39.197Z,23.16
2023-05-23T11:54:06.980Z,23.11
2023-05-23T11:56:39.639Z,23.16
2023-05-23T11:59:06.624Z,23.06
2023-05-23T12:01:34.683Z,23.00
2023-05-23T12:04:10.938Z,23.26
2023-05-23T12:06:40.476Z,23.30
2023-05-23T12:09:16.920Z,23.36
2023-05-23T12:11:45.112Z,23.42
2023-05-23T12:14:18.372Z,23.42
2023-05-23T12:16:47.117Z,23.54
2023-05-23T12:19:17.136Z,23.53
2023-05-23T12:21:46.511Z,23.64
2023-05-23T12:24:21.280Z,23.69
2023-05-23T12:26:48.998Z,23.50
2023-05-23T12:29:16.591Z,23.75
2023-05-23T12:31:43.626Z,23.64
2023-05-23T12:34:13.836Z,23.72
2023-05-23T12:36:49.075Z,23.75
2023-05-23T12:39:16.490Z,23.45
2023-05-23T12:41:45.533Z,23.35
2023-05-23T12:44:16.531Z,23.33
2023-05-23T12:46:43.642Z,23.29
2023-05-23T12:49:11.179Z,23.23
2023-05-23T12:51:38.126Z,23.32
2023-05-23T12:54:05.026Z,23.20
2023-05-23T12:56:31.980Z,23.00
2023-05-23T12:58:58.929Z,23.05
2023-05-23T13:01:25.902Z,23.09
2023-05-23T13:03:52.901Z,23.09
2023-05-23T13:06:19.881Z,22.99
2023-05-23T13:08:46.904Z,22.96
2023-05-23T13:11:13.811Z,22.92
2023-05-23T13:13:40.737Z,22.83
2023-05-23T13:16:08.171Z,22.93
2023-05-23T13:18:35.047Z,23.08
2023-05-23T13:21:01.945Z,23.27
2023-05-23T13:23:28.831Z,23.29
2023-05-23T13:25:56.553Z,23.18
2023-05-23T13:28:23.776Z,23.14
2023-05-23T13:30:51.586Z,23.03
2023-05-23T13:33:18.496Z,23.20
2023-05-23T13:35:45.650Z,23.38
2023-05-23T13:38:12.850Z,23.50
2023-05-23T13:40:39.995Z,23.36
2023-05-23T13:43:07.206Z,23.11
2023-05-23T13:45:34.097Z,23.15
2023-05-23T13:48:01.150Z,23.21
2023-05-23T13:50:28.393Z,23.32
2023-05-23T13:52:56.199Z,23.32
2023-05-23T13:55:22.989Z,23.16
2023-05-23T13:57:49.830Z,23.23
2023-05-23T14:00:17.448Z,23.38
2023-05-23T14:02:44.284Z,23.32
2023-05-23T14:05:11.187Z,23.28
2023-05-23T14:07:38.470Z,23.23
2023-05-23T14:10:07.152Z,23.43
2023-05-23T14:12:34.094Z,23.39
2023-05-23T14:15:00.928Z,23.27
2023-05-23T14:17:27.859Z,23.39
2023-05-23T14:19:54.756Z,23.52
2023-05-23T14:22:21.654Z,23.59
2023-05-23T14:24:48.755Z,23.49
2023-05-23T14:27:15.653Z,23.46
2023-05-23T14:29:46.430Z,23.77
2023-05-23T14:32:13.731Z,23.93
2023-05-23T14:34:40.912Z,23.89
2023-05-23T14:37:07.791Z,24.00
2023-05-23T14:39:34.824Z,23.76
2023-05-23T14:42:02.772Z,23.77
2023-05-23T14:44:29.764Z,23.85
2023-05-23T14:46:56.620Z,23.91
2023-05-23T14:49:23.449Z,23.99
2023-05-23T14:51:51.130Z,24.06
2023-05-23T14:54:19.316Z,24.26
2023-05-23T14:56:46.449Z,24.35
2023-05-23T14:59:13.454Z,24.43
2023-05-23T15:01:41.080Z,24.47
2023-05-23T15:04:09.894Z,24.29
2023-05-23T15:06:38.816Z,24.24
2023-05-23T15:09:06.002Z,24.14
2023-05-23T15:11:35.099Z,24.13
2023-05-23T15:14:02.252Z,24.06
2023-05-23T15:16:33.040Z,23.97
2023-05-23T15:19:00.383Z,23.75
2023-05-23T15:21:27.531Z,23.75
2023-05-23T15:23:54.828Z,23.60
2023-05-23T15:26:22.216Z,23.91
2023-05-23T15:28:49.099Z,23.68
2023-05-23T15:31:15.924Z,23.34
2023-05-23T15:33:42.921Z,23.58
2023-05-23T15:36:09.832Z,23.57
2023-05-23T15:38:36.630Z,23.34
2023-05-23T15:41:04.954Z,23.25
2023-05-23T15:43:32.792Z,23.35
2023-05-23T15:45:59.736Z,23.34
2023-05-23T15:48:26.579Z,23.30
2023-05-23T15:50:53.556Z,23.33
2023-05-23T15:53:20.935Z,23.64
2023-05-23T15:55:47.894Z,23.67
2023-05-23T15:58:14.961Z,23.73
2023-05-23T16:00:42.027Z,23.39
2023-05-23T16:03:09.064Z,23.38
2023-05-23T16:05:36.313Z,23.66
2023-05-23T16:08:03.101Z,23.76
2023-05-23T16:10:30.028Z,23.97
2023-05-23T16:12:56.810Z,24.11
2023-05-23T16:15:23.657Z,24.17
2023-05-23T16:17:50.523Z,23.92
2023-05-23T16:20:17.429Z,23.99
2023-05-23T16:22:45.962Z,23.95
2023-05-23T16:25:13.096Z,24.20
2023-05-23T16:27:40.644Z,23.68
2023-05-23T16:30:08.154Z,23.78
2023-05-23T16:32:35.144Z,23.85
2023-05-23T16:35:01.960Z,23.77
2023-05-23T16:37:28.820Z,23.66
2023-05-23T16:39:55.652Z,23.72
2023-05-23T16:42:22.490Z,23.55
2023-05-23T16:44:49.486Z,23.68
2023-05-23T16:47:17.153Z,23.61
2023-05-23T16:49:44.138Z,23.68
2023-05-23T16:52:11.328Z,23.87
2023-05-23T16:54:38.133Z,24.16
2023-05-23T16:57:05.710Z,24.24
2023-05-23T16:59:32.792Z,24.12
2023-05-23T17:01:59.762Z,24.37
2023-05-23T17:04:26.652Z,24.21
2023-05-23T17:06:53.560Z,23.99
2023-05-23T17:09:22.001Z,24.08
2023-05-23T17:11:49.286Z,24.09
2023-05-23T17:14:16.290Z,24.21
2023-05-23T17:16:43.285Z,24.00
2023-05-23T17:19:10.533Z,24.04
2023-05-23T17:21:37.721Z,24.12
2023-05-23T17:24:04.862Z,24.19
2023-05-23T17:26:31.939Z,24.21
2023-05-23T17:28:58.842Z,24.27
2023-05-23T17:31:26.519Z,24.12
2023-05-23T17:33:53.988Z,24.05
2023-05-23T17:36:21.104Z,23.99
2023-05-23T17:38:47.908Z,23.96
2023-05-23T17:41:15.534Z,23.92
2023-05-23T17:43:45.395Z,23.89
2023-05-23T17:46:12.245Z,23.88
2023-05-23T17:51:12.352Z,23.61
2023-05-23T17:53:41.327Z,23.53
2023-05-23T17:56:09.395Z,23.49
2023-05-23T17:58:41.810Z,23.52
2023-05-23T18:01:11.735Z,23.35
2023-05-23T18:03:38.970Z,23.30
2023-05-23T18:06:05.940Z,23.32
2023-05-23T18:08:32.801Z,23.32
2023-05-23T18:11:00.166Z,23.36
2023-05-23T18:13:26.989Z,23.30
2023-05-23T18:15:53.790Z,23.35
2023-05-23T18:18:21.216Z,23.33
2023-05-23T18:20:48.029Z,23.28
2023-05-23T18:23:14.812Z,23.24
2023-05-23T18:25:41.555Z,23.29
2023-05-23T18:28:08.299Z,23.33
2023-05-23T18:30:35.124Z,23.31
2023-05-23T18:33:02.098Z,23.33
2023-05-23T18:35:29.013Z,23.33
2023-05-23T18:37:56.108Z,23.28
2023-05-23T18:40:24.292Z,23.28
2023-05-23T18:42:51.207Z,23.24
2023-05-23T18:45:18.232Z,23.15
2023-05-23T18:47:45.260Z,23.17
2023-05-23T18:50:13.430Z,23.11
2023-05-23T18:52:40.843Z,23.10
2023-05-23T18:55:08.480Z,23.08
2023-05-23T18:57:35.346Z,23.12
2023-05-23T19:00:03.268Z,22.96
2023-05-23T19:02:30.265Z,23.00
2023-05-23T19:04:57.299Z,22.98
2023-05-23T19:07:24.167Z,22.98
2023-05-23T19:09:51.290Z,22.95
2023-05-23T19:12:19.472Z,22.82
2023-05-23T19:14:46.579Z,22.72
2023-05-23T19:17:13.525Z,22.70
2023-05-23T19:19:40.475Z,22.61
2023-05-23T19:22:07.451Z,22.58
2023-05-23T19:24:34.248Z,22.51
2023-05-23T19:27:02.307Z,22.48
2023-05-23T19:29:29.245Z,22.41
2023-05-23T19:31:57.935Z,22.36
2023-05-23T19:34:25.000Z,22.29
2023-05-23T19:36:51.789Z,22.13
2023-05-23T19:39:19.107Z,22.15
2023-05-23T19:41:46.091Z,22.09
2023-05-23T19:44:13.272Z,22.07
2023-05-23T19:46:40.222Z,22.06
2023-05-23T19:49:08.932Z,22.05
2023-05-23T19:51:36.891Z,22.00
2023-05-23T19:54:04.091Z,21.99
2023-05-23T19:56:31.036Z,21.99
2023-05-23T19:59:07.206Z,22.00
2023-05-23T20:01:34.186Z,22.00
2023-05-23T20:04:01.606Z,21.98
2023-05-23T20:06:28.663Z,21.93
2023-05-23T20:08:55.553Z,21.90
2023-05-23T20:11:22.987Z,21.85
2023-05-23T20:13:49.840Z,21.76
2023-05-23T20:16:17.531Z,21.70
2023-05-23T20:18:44.449Z,21.62
2023-05-23T20:21:11.826Z,21.65
2023-05-23T20:23:38.704Z,21.63
2023-05-23T20:26:07.042Z,21.60
2023-05-23T20:28:35.028Z,21.57
2023-05-23T20:31:02.229Z,21.55
2023-05-23T20:33:29.077Z,21.53
2023-05-23T20:35:56.534Z,21.49
2023-05-23T20:38:24.775Z,21.50
2023-05-23T20:40:52.745Z,21.47
2023-05-23T20:43:22.336Z,21.48
2023-05-23T20:45:49.255Z,21.47
2023-05-23T20:48:16.340Z,21.49
2023-05-23T20:50:43.980Z,21.49
2023-05-23T20:53:11.296Z,21.50
2023-05-23T20:55:38.180Z,21.49
2023-05-23T20:58:05.121Z,21.41
2023-05-23T21:00:32.007Z,21.30
2023-05-23T21:02:59.081Z,21.19
2023-05-23T21:05:26.302Z,21.12
2023-05-23T21:07:53.189Z,21.09
2023-05-23T21:10:20.096Z,21.14
2023-05-23T21:12:50.287Z,21.21
2023-05-23T21:15:17.441Z,21.25
2023-05-23T21:17:44.431Z,21.22
2023-05-23T21:20:12.059Z,21.19
2023-05-23T21:22:39.672Z,21.15
2023-05-23T21:25:06.900Z,21.16
2023-05-23T21:27:33.762Z,21.12
2023-05-23T21:30:00.561Z,21.05
2023-05-23T21:32:27.461Z,21.11
2023-05-23T21:34:54.720Z,21.06
2023-05-23T21:37:21.557Z,20.99
2023-05-23T21:39:52.079Z,21.01
2023-05-23T21:42:20.075Z,20.99
2023-05-23T21:44:47.065Z,20.92
2023-05-23T21:47:13.975Z,20.98
2023-05-23T21:49:40.858Z,21.04
2023-05-23T21:52:07.750Z,21.02
2023-05-23T21:54:34.692Z,21.09
2023-05-23T21:57:01.573Z,21.11
2023-05-23T21:59:28.494Z,21.12
2023-05-23T22:01:55.348Z,21.13
2023-05-23T22:04:22.309Z,21.08
2023-05-23T22:06:49.111Z,21.08
2023-05-23T22:09:16.093Z,21.06
2023-05-23T22:11:43.186Z,20.98
2023-05-23T22:14:10.561Z,20.98
2023-05-23T22:16:40.560Z,20.88
2023-05-23T22:19:09.746Z,20.90
2023-05-23T22:21:37.112Z,20.86
2023-05-23T22:24:04.510Z,20.80
2023-05-23T22:26:31.366Z,20.80
2023-05-23T22:28:58.159Z,20.80
2023-05-23T22:31:25.097Z,20.84
2023-05-23T22:33:52.343Z,20.85
2023-05-23T22:36:19.189Z,20.84
2023-05-23T22:38:46.120Z,20.80
2023-05-23T22:41:12.999Z,20.82
2023-05-23T22:43:40.041Z,20.82
2023-05-23T22:46:07.500Z,20.81
2023-05-23T22:48:34.470Z,20.78
2023-05-23T22:51:02.481Z,20.73
2023-05-23T22:53:30.172Z,20.68
2023-05-23T22:55:57.529Z,20.57
2023-05-23T22:58:24.553Z,20.50
2023-05-23T23:00:51.954Z,20.45
2023-05-23T23:03:19.093Z,20.35
2023-05-23T23:05:46.488Z,20.33
2023-05-23T23:08:13.489Z,20.21
2023-05-23T23:10:41.762Z,20.16
2023-05-23T23:13:08.818Z,20.05
2023-05-23T23:15:36.767Z,20.05
2023-05-23T23:18:05.853Z,20.05
2023-05-23T23:20:33.202Z,20.04
2023-05-23T23:23:00.691Z,20.09
2023-05-23T23:25:27.537Z,20.12
2023-05-23T23:27:54.315Z,20.10
2023-05-23T23:30:21.422Z,20.13
2023-05-23T23:32:48.549Z,20.14
2023-05-23T23:35:15.652Z,20.11
2023-05-23T23:37:42.503Z,20.00
2023-05-23T23:40:10.058Z,20.04
2023-05-23T23:42:37.152Z,20.03
2023-05-23T23:45:05.052Z,19.97
2023-05-23T23:47:32.818Z,19.96
2023-05-23T23:50:00.022Z,19.96
2023-05-23T23:52:28.194Z,19.94
2023-05-23T23:54:55.217Z,19.90
2023-05-23T23:57:22.060Z,19.81
